KLM92V LIRF-EHAM
Flight info
| Callsign | KLM92V |
|---|---|
| Flight time | 2h 14m |
| Altitude | 36000 |
| Route | SOVAN DCT AMTEL DCT BEXOR DCT SOTOV DCT IRBIR DCT ASPAT DCT MASEK DCT MAPOX DCT NORKU |
| Aircraft | A21N/M-SDE2E3FGHIRWXY/LB1 |
Departure
| Time | 2026-05-04 16:12 |
|---|---|
| Airport | Rome–Fiumicino Leonardo da Vinci International Airport (LIRF) |
Arrival
| Time | 2026-05-04 18:26 |
|---|---|
| Airport | Amsterdam Airport Schiphol (EHAM) |
| Time | Latitude | Longitude | Altitude | Speed | Heading |
|---|---|---|---|---|---|
| 2026-05-04 15:47 | 41.79549 | 12.25900 | 14 ft | 0 kts | 295° |
| 2026-05-04 16:00 | 41.79547 | 12.25906 | 15 ft | 3 kts | 298° |
| 2026-05-04 16:00 | 41.79532 | 12.25928 | 15 ft | 4 kts | 311° |
| 2026-05-04 16:01 | 41.79522 | 12.25950 | 15 ft | 4 kts | 307° |
| 2026-05-04 16:01 | 41.79505 | 12.25971 | 17 ft | 4 kts | 8° |
| 2026-05-04 16:01 | 41.79502 | 12.25974 | 17 ft | 4 kts | 25° |
| 2026-05-04 16:01 | 41.79527 | 12.25989 | 15 ft | 4 kts | 25° |
| 2026-05-04 16:02 | 41.79551 | 12.26004 | 14 ft | 4 kts | 25° |
| 2026-05-04 16:02 | 41.79556 | 12.26007 | 16 ft | 0 kts | 25° |
| 2026-05-04 16:05 | 41.79560 | 12.26009 | 14 ft | 3 kts | 24° |
| 2026-05-04 16:05 | 41.79607 | 12.26031 | 15 ft | 10 kts | 15° |
| 2026-05-04 16:05 | 41.79758 | 12.26084 | 14 ft | 7 kts | 324° |
| 2026-05-04 16:06 | 41.79785 | 12.26014 | 14 ft | 10 kts | 296° |
| 2026-05-04 16:06 | 41.79914 | 12.25847 | 14 ft | 12 kts | 28° |
| 2026-05-04 16:07 | 41.80030 | 12.25919 | 14 ft | 16 kts | 24° |
| 2026-05-04 16:07 | 41.80371 | 12.26130 | 15 ft | 17 kts | 25° |
| 2026-05-04 16:08 | 41.80483 | 12.26179 | 16 ft | 13 kts | 8° |
| 2026-05-04 16:08 | 41.80609 | 12.26525 | 17 ft | 18 kts | 69° |
| 2026-05-04 16:09 | 41.80702 | 12.26873 | 14 ft | 21 kts | 71° |
| 2026-05-04 16:09 | 41.80810 | 12.27041 | 13 ft | 13 kts | 347° |
| 2026-05-04 16:10 | 41.80957 | 12.26927 | 13 ft | 7 kts | 273° |
| 2026-05-04 16:11 | 41.80741 | 12.26157 | 20 ft | 108 kts | 250° |
| 2026-05-04 16:11 | 41.80408 | 12.24937 | 44 ft | 165 kts | 248° |
| 2026-05-04 16:12 | 41.79228 | 12.20089 | 2136 ft | 197 kts | 265° |
| 2026-05-04 16:12 | 41.81472 | 12.15099 | 4235 ft | 220 kts | 308° |
| 2026-05-04 16:13 | 41.83435 | 12.11871 | 5695 ft | 226 kts | 307° |
| 2026-05-04 16:13 | 41.86104 | 12.09699 | 7234 ft | 235 kts | 345° |
| 2026-05-04 16:14 | 41.89523 | 12.08469 | 7909 ft | 276 kts | 344° |
| 2026-05-04 16:14 | 41.93389 | 12.07032 | 9310 ft | 293 kts | 343° |
| 2026-05-04 16:15 | 41.99681 | 12.05741 | 11032 ft | 333 kts | 354° |
| 2026-05-04 16:16 | 42.04502 | 12.05288 | 12224 ft | 349 kts | 354° |
| 2026-05-04 16:16 | 42.11800 | 12.04578 | 14426 ft | 357 kts | 353° |
| 2026-05-04 16:17 | 42.16815 | 12.04081 | 15676 ft | 365 kts | 353° |
| 2026-05-04 16:18 | 42.24418 | 12.02555 | 17493 ft | 374 kts | 348° |
| 2026-05-04 16:18 | 42.26997 | 12.01974 | 18115 ft | 377 kts | 347° |
| 2026-05-04 16:19 | 42.34853 | 12.00202 | 19723 ft | 386 kts | 348° |
| 2026-05-04 16:19 | 42.40186 | 11.98994 | 20800 ft | 391 kts | 348° |
| 2026-05-04 16:20 | 42.48330 | 11.97152 | 22327 ft | 400 kts | 348° |
| 2026-05-04 16:20 | 42.53863 | 11.95899 | 23303 ft | 406 kts | 348° |
| 2026-05-04 16:21 | 42.62293 | 11.93990 | 24135 ft | 410 kts | 348° |
| 2026-05-04 16:22 | 42.67938 | 11.92708 | 24561 ft | 412 kts | 348° |
| 2026-05-04 16:22 | 42.76487 | 11.90769 | 25872 ft | 415 kts | 347° |
| 2026-05-04 16:23 | 42.84883 | 11.87944 | 27056 ft | 414 kts | 334° |
| 2026-05-04 16:24 | 42.95116 | 11.80672 | 28481 ft | 417 kts | 329° |
| 2026-05-04 16:25 | 43.00251 | 11.76913 | 29103 ft | 420 kts | 328° |
| 2026-05-04 16:26 | 43.10634 | 11.69282 | 30261 ft | 427 kts | 328° |
| 2026-05-04 16:26 | 43.18517 | 11.63507 | 31032 ft | 431 kts | 331° |
| 2026-05-04 16:27 | 43.24248 | 11.60896 | 31651 ft | 438 kts | 345° |
| 2026-05-04 16:28 | 43.33396 | 11.59761 | 32642 ft | 440 kts | 351° |
| 2026-05-04 16:28 | 43.42505 | 11.58860 | 33573 ft | 436 kts | 350° |
| 2026-05-04 16:29 | 43.54606 | 11.57655 | 34579 ft | 433 kts | 350° |
| 2026-05-04 16:30 | 43.63602 | 11.56755 | 35234 ft | 431 kts | 350° |
| 2026-05-04 16:31 | 43.69583 | 11.56156 | 35612 ft | 431 kts | 350° |
| 2026-05-04 16:31 | 43.78536 | 11.55259 | 36095 ft | 429 kts | 350° |
| 2026-05-04 16:32 | 43.87449 | 11.54362 | 36097 ft | 428 kts | 351° |
| 2026-05-04 16:33 | 43.99348 | 11.53162 | 36104 ft | 429 kts | 351° |
| 2026-05-04 16:34 | 44.08277 | 11.52258 | 36118 ft | 429 kts | 351° |
| 2026-05-04 16:35 | 44.26233 | 11.50435 | 36129 ft | 431 kts | 351° |
| 2026-05-04 16:36 | 44.35211 | 11.49521 | 36102 ft | 431 kts | 351° |
| 2026-05-04 16:37 | 44.44170 | 11.48606 | 36078 ft | 430 kts | 351° |
| 2026-05-04 16:38 | 44.56104 | 11.47380 | 36056 ft | 430 kts | 351° |
| 2026-05-04 16:39 | 44.71014 | 11.45844 | 36071 ft | 429 kts | 351° |
| 2026-05-04 16:40 | 44.82931 | 11.44610 | 36103 ft | 429 kts | 351° |
| 2026-05-04 16:41 | 44.96861 | 11.43162 | 36100 ft | 429 kts | 351° |
| 2026-05-04 16:43 | 45.11764 | 11.41603 | 36085 ft | 430 kts | 351° |
| 2026-05-04 16:43 | 45.20716 | 11.40663 | 36077 ft | 430 kts | 351° |
| 2026-05-04 16:45 | 45.38649 | 11.38771 | 36076 ft | 431 kts | 351° |
| 2026-05-04 16:46 | 45.53635 | 11.37181 | 36070 ft | 432 kts | 352° |
| 2026-05-04 16:47 | 45.65640 | 11.35901 | 36069 ft | 433 kts | 352° |
| 2026-05-04 16:48 | 45.77707 | 11.34610 | 36095 ft | 433 kts | 352° |
| 2026-05-04 16:49 | 45.89754 | 11.33316 | 36109 ft | 435 kts | 352° |
| 2026-05-04 16:50 | 46.01836 | 11.32010 | 36136 ft | 436 kts | 352° |
| 2026-05-04 16:51 | 46.10934 | 11.31023 | 36158 ft | 438 kts | 352° |
| 2026-05-04 16:52 | 46.22983 | 11.29710 | 36161 ft | 439 kts | 352° |
| 2026-05-04 16:53 | 46.32247 | 11.28697 | 36178 ft | 440 kts | 352° |
| 2026-05-04 16:53 | 46.41421 | 11.27693 | 36003 ft | 441 kts | 352° |
| 2026-05-04 16:54 | 46.44479 | 11.27356 | 35999 ft | 441 kts | 352° |
| 2026-05-04 16:55 | 46.62895 | 11.25323 | 36031 ft | 443 kts | 352° |
| 2026-05-04 16:56 | 46.78323 | 11.23609 | 36063 ft | 444 kts | 352° |
| 2026-05-04 16:57 | 46.87474 | 11.22539 | 36041 ft | 443 kts | 350° |
| 2026-05-04 16:58 | 46.99641 | 11.20045 | 35986 ft | 441 kts | 351° |
| 2026-05-04 17:00 | 47.17959 | 11.17033 | 35921 ft | 442 kts | 350° |
| 2026-05-04 17:01 | 47.33249 | 11.14406 | 35919 ft | 444 kts | 350° |
| 2026-05-04 17:02 | 47.45599 | 11.12275 | 35927 ft | 447 kts | 350° |
| 2026-05-04 17:03 | 47.54878 | 11.10666 | 35935 ft | 449 kts | 350° |
| 2026-05-04 17:03 | 47.64155 | 11.08740 | 35965 ft | 448 kts | 348° |
| 2026-05-04 17:04 | 47.76489 | 11.05890 | 35984 ft | 449 kts | 348° |
| 2026-05-04 17:05 | 47.88861 | 11.03087 | 35996 ft | 450 kts | 348° |
| 2026-05-04 17:06 | 47.98139 | 11.00975 | 35977 ft | 450 kts | 348° |
| 2026-05-04 17:07 | 48.06406 | 10.99086 | 35952 ft | 449 kts | 348° |
| 2026-05-04 17:07 | 48.13592 | 10.97439 | 35944 ft | 449 kts | 348° |
| 2026-05-04 17:08 | 48.22860 | 10.95309 | 35937 ft | 449 kts | 348° |
| 2026-05-04 17:09 | 48.29084 | 10.93873 | 35937 ft | 449 kts | 348° |
| 2026-05-04 17:09 | 48.35261 | 10.92445 | 35929 ft | 449 kts | 348° |
| 2026-05-04 17:10 | 48.50715 | 10.88857 | 35930 ft | 450 kts | 348° |
| 2026-05-04 17:11 | 48.56905 | 10.87413 | 35936 ft | 451 kts | 348° |
| 2026-05-04 17:12 | 48.66211 | 10.85237 | 35952 ft | 451 kts | 348° |
| 2026-05-04 17:13 | 48.81755 | 10.81583 | 35966 ft | 453 kts | 348° |
| 2026-05-04 17:14 | 48.93169 | 10.78885 | 35979 ft | 454 kts | 348° |
| 2026-05-04 17:15 | 49.02574 | 10.76653 | 35988 ft | 454 kts | 348° |
| 2026-05-04 17:16 | 49.15075 | 10.73651 | 35982 ft | 454 kts | 346° |
| 2026-05-04 17:16 | 49.24058 | 10.69429 | 35975 ft | 448 kts | 333° |
| 2026-05-04 17:17 | 49.26887 | 10.67426 | 35975 ft | 448 kts | 332° |
| 2026-05-04 17:18 | 49.38182 | 10.59353 | 35973 ft | 448 kts | 332° |
| 2026-05-04 17:19 | 49.49481 | 10.51245 | 35955 ft | 448 kts | 332° |
| 2026-05-04 17:20 | 49.60777 | 10.43095 | 35952 ft | 448 kts | 331° |
| 2026-05-04 17:20 | 49.69251 | 10.36954 | 35956 ft | 449 kts | 331° |
| 2026-05-04 17:21 | 49.80975 | 10.28420 | 35952 ft | 449 kts | 331° |
| 2026-05-04 17:22 | 49.86246 | 10.24567 | 35956 ft | 449 kts | 331° |
| 2026-05-04 17:23 | 49.97550 | 10.16275 | 35950 ft | 449 kts | 331° |
| 2026-05-04 17:24 | 50.06020 | 10.10032 | 35964 ft | 449 kts | 331° |
| 2026-05-04 17:25 | 50.17317 | 10.01666 | 35946 ft | 449 kts | 330° |
| 2026-05-04 17:26 | 50.28620 | 9.93253 | 35956 ft | 450 kts | 330° |
| 2026-05-04 17:27 | 50.41669 | 9.80438 | 35954 ft | 440 kts | 312° |
| 2026-05-04 17:28 | 50.50549 | 9.67175 | 35956 ft | 441 kts | 312° |
| 2026-05-04 17:29 | 50.63887 | 9.47201 | 35962 ft | 441 kts | 312° |
| 2026-05-04 17:31 | 50.75004 | 9.30425 | 35963 ft | 442 kts | 311° |
| 2026-05-04 17:32 | 50.86078 | 9.13595 | 35963 ft | 442 kts | 311° |
| 2026-05-04 17:33 | 50.94931 | 9.00056 | 35965 ft | 442 kts | 311° |
| 2026-05-04 17:34 | 51.03774 | 8.86459 | 36012 ft | 442 kts | 311° |
| 2026-05-04 17:35 | 51.14789 | 8.69413 | 35990 ft | 439 kts | 311° |
| 2026-05-04 17:36 | 51.19160 | 8.62615 | 35984 ft | 438 kts | 310° |
| 2026-05-04 17:36 | 51.23512 | 8.55827 | 35975 ft | 437 kts | 310° |
| 2026-05-04 17:37 | 51.27846 | 8.49050 | 35963 ft | 436 kts | 310° |
| 2026-05-04 17:37 | 51.32165 | 8.42275 | 35953 ft | 435 kts | 310° |
| 2026-05-04 17:38 | 51.36477 | 8.35493 | 35949 ft | 434 kts | 310° |
| 2026-05-04 17:38 | 51.40782 | 8.28701 | 35949 ft | 435 kts | 310° |
| 2026-05-04 17:39 | 51.47241 | 8.18478 | 35953 ft | 435 kts | 310° |
| 2026-05-04 17:39 | 51.51547 | 8.11637 | 35965 ft | 436 kts | 310° |
| 2026-05-04 17:40 | 51.55864 | 8.04761 | 35972 ft | 437 kts | 310° |
| 2026-05-04 17:40 | 51.60210 | 7.97818 | 35976 ft | 438 kts | 310° |
| 2026-05-04 17:41 | 51.64535 | 7.90890 | 35985 ft | 439 kts | 310° |
| 2026-05-04 17:41 | 51.68866 | 7.83931 | 35993 ft | 440 kts | 310° |
| 2026-05-04 17:42 | 51.73201 | 7.76947 | 35997 ft | 441 kts | 310° |
| 2026-05-04 17:42 | 51.77539 | 7.69939 | 35997 ft | 442 kts | 310° |
| 2026-05-04 17:43 | 51.81879 | 7.62906 | 35995 ft | 442 kts | 310° |
| 2026-05-04 17:43 | 51.84046 | 7.59388 | 35865 ft | 441 kts | 310° |
| 2026-05-04 17:43 | 51.86200 | 7.55889 | 35597 ft | 439 kts | 309° |
| 2026-05-04 17:44 | 51.88357 | 7.52377 | 34998 ft | 440 kts | 309° |
| 2026-05-04 17:44 | 51.90525 | 7.48842 | 34139 ft | 445 kts | 309° |
| 2026-05-04 17:44 | 51.92712 | 7.45273 | 33360 ft | 444 kts | 309° |
| 2026-05-04 17:44 | 51.94862 | 7.41749 | 32827 ft | 437 kts | 307° |
| 2026-05-04 17:45 | 51.96707 | 7.37883 | 31809 ft | 432 kts | 295° |
| 2026-05-04 17:45 | 51.98122 | 7.33551 | 30517 ft | 439 kts | 291° |
| 2026-05-04 17:45 | 51.99488 | 7.29053 | 29211 ft | 448 kts | 291° |
| 2026-05-04 17:45 | 52.00861 | 7.24525 | 28299 ft | 447 kts | 291° |
| 2026-05-04 17:46 | 52.02237 | 7.20029 | 27687 ft | 439 kts | 292° |
| 2026-05-04 17:46 | 52.03141 | 7.17095 | 27476 ft | 430 kts | 292° |
| 2026-05-04 17:46 | 52.04473 | 7.12791 | 27200 ft | 417 kts | 292° |
| 2026-05-04 17:46 | 52.05768 | 7.08594 | 26941 ft | 417 kts | 292° |
| 2026-05-04 17:47 | 52.07067 | 7.04366 | 26692 ft | 420 kts | 292° |
| 2026-05-04 17:47 | 52.08372 | 7.00117 | 26334 ft | 419 kts | 292° |
| 2026-05-04 17:47 | 52.09673 | 6.95880 | 25858 ft | 418 kts | 292° |
| 2026-05-04 17:47 | 52.11043 | 6.91411 | 25346 ft | 415 kts | 292° |
| 2026-05-04 17:48 | 52.12248 | 6.87473 | 24893 ft | 412 kts | 293° |
| 2026-05-04 17:48 | 52.13518 | 6.83313 | 24415 ft | 410 kts | 293° |
| 2026-05-04 17:48 | 52.14783 | 6.79161 | 23944 ft | 409 kts | 293° |
| 2026-05-04 17:48 | 52.16047 | 6.75007 | 23449 ft | 408 kts | 293° |
| 2026-05-04 17:49 | 52.17303 | 6.70874 | 22959 ft | 405 kts | 294° |
| 2026-05-04 17:49 | 52.18544 | 6.66784 | 22481 ft | 401 kts | 294° |
| 2026-05-04 17:49 | 52.19775 | 6.62721 | 22021 ft | 398 kts | 294° |
| 2026-05-04 17:49 | 52.20995 | 6.58687 | 21562 ft | 395 kts | 294° |
| 2026-05-04 17:50 | 52.22202 | 6.54692 | 21120 ft | 392 kts | 294° |
| 2026-05-04 17:50 | 52.23402 | 6.50709 | 20663 ft | 388 kts | 294° |
| 2026-05-04 17:50 | 52.24586 | 6.46778 | 20213 ft | 385 kts | 295° |
| 2026-05-04 17:50 | 52.25758 | 6.42878 | 19762 ft | 382 kts | 295° |
| 2026-05-04 17:51 | 52.26922 | 6.38996 | 19329 ft | 379 kts | 295° |
| 2026-05-04 17:51 | 52.28074 | 6.35152 | 18889 ft | 376 kts | 295° |
| 2026-05-04 17:51 | 52.29217 | 6.31331 | 18459 ft | 373 kts | 295° |
| 2026-05-04 17:51 | 52.30348 | 6.27546 | 18007 ft | 370 kts | 295° |
| 2026-05-04 17:52 | 52.31467 | 6.23798 | 17573 ft | 367 kts | 295° |
| 2026-05-04 17:52 | 52.32584 | 6.20055 | 17127 ft | 366 kts | 295° |
| 2026-05-04 17:52 | 52.33713 | 6.16261 | 16719 ft | 364 kts | 295° |
| 2026-05-04 17:52 | 52.34801 | 6.12602 | 16566 ft | 351 kts | 295° |
| 2026-05-04 17:53 | 52.35847 | 6.09080 | 16429 ft | 337 kts | 295° |
| 2026-05-04 17:53 | 52.36846 | 6.05707 | 16298 ft | 323 kts | 295° |
| 2026-05-04 17:53 | 52.37808 | 6.02456 | 15994 ft | 315 kts | 295° |
| 2026-05-04 17:53 | 52.38762 | 5.99220 | 15484 ft | 315 kts | 295° |
| 2026-05-04 17:54 | 52.39710 | 5.96001 | 15014 ft | 313 kts | 295° |
| 2026-05-04 17:54 | 52.40651 | 5.92803 | 14588 ft | 311 kts | 294° |
| 2026-05-04 17:54 | 52.41584 | 5.89629 | 14158 ft | 309 kts | 295° |
| 2026-05-04 17:54 | 52.42510 | 5.86471 | 13712 ft | 307 kts | 295° |
| 2026-05-04 17:55 | 52.43433 | 5.83322 | 13240 ft | 305 kts | 295° |
| 2026-05-04 17:55 | 52.44344 | 5.80208 | 12761 ft | 303 kts | 294° |
| 2026-05-04 17:55 | 52.45253 | 5.77100 | 12312 ft | 300 kts | 294° |
| 2026-05-04 17:55 | 52.46155 | 5.74012 | 11864 ft | 298 kts | 294° |
| 2026-05-04 17:56 | 52.47037 | 5.70985 | 11575 ft | 291 kts | 294° |
| 2026-05-04 17:56 | 52.47977 | 5.67760 | 11224 ft | 289 kts | 294° |
| 2026-05-04 17:56 | 52.48773 | 5.65021 | 10930 ft | 288 kts | 294° |
| 2026-05-04 17:56 | 52.49615 | 5.62126 | 10835 ft | 276 kts | 294° |
| 2026-05-04 17:57 | 52.50428 | 5.59329 | 10725 ft | 264 kts | 294° |
| 2026-05-04 17:57 | 52.51205 | 5.56645 | 10485 ft | 258 kts | 294° |
| 2026-05-04 17:57 | 52.52215 | 5.54258 | 10186 ft | 255 kts | 319° |
| 2026-05-04 17:57 | 52.53808 | 5.52949 | 9956 ft | 264 kts | 348° |
| 2026-05-04 17:58 | 52.55639 | 5.53063 | 9700 ft | 267 kts | 17° |
| 2026-05-04 17:58 | 52.57272 | 5.54472 | 9441 ft | 267 kts | 40° |
| 2026-05-04 17:58 | 52.58495 | 5.56742 | 9182 ft | 266 kts | 58° |
| 2026-05-04 17:58 | 52.59337 | 5.59440 | 8917 ft | 263 kts | 69° |
| 2026-05-04 17:59 | 52.59940 | 5.62274 | 8646 ft | 263 kts | 74° |
| 2026-05-04 17:59 | 52.60438 | 5.65164 | 8401 ft | 261 kts | 75° |
| 2026-05-04 17:59 | 52.61365 | 5.70948 | 7892 ft | 260 kts | 75° |
| 2026-05-04 18:00 | 52.61831 | 5.73818 | 7637 ft | 258 kts | 75° |
| 2026-05-04 18:00 | 52.62296 | 5.76652 | 7394 ft | 256 kts | 75° |
| 2026-05-04 18:00 | 52.62763 | 5.79474 | 7143 ft | 256 kts | 75° |
| 2026-05-04 18:00 | 52.63232 | 5.82293 | 6986 ft | 253 kts | 75° |
| 2026-05-04 18:01 | 52.63695 | 5.85076 | 6976 ft | 253 kts | 75° |
| 2026-05-04 18:01 | 52.64152 | 5.87894 | 6972 ft | 255 kts | 79° |
| 2026-05-04 18:01 | 52.64118 | 5.90769 | 6979 ft | 253 kts | 107° |
| 2026-05-04 18:02 | 52.61893 | 5.94950 | 6975 ft | 250 kts | 161° |
| 2026-05-04 18:02 | 52.60202 | 5.95399 | 6970 ft | 247 kts | 187° |
| 2026-05-04 18:02 | 52.58571 | 5.94587 | 6982 ft | 247 kts | 212° |
| 2026-05-04 18:02 | 52.57327 | 5.92697 | 6972 ft | 245 kts | 238° |
| 2026-05-04 18:03 | 52.56688 | 5.90124 | 6967 ft | 245 kts | 257° |
| 2026-05-04 18:03 | 52.56270 | 5.87403 | 6971 ft | 245 kts | 256° |
| 2026-05-04 18:03 | 52.55834 | 5.84697 | 6973 ft | 245 kts | 255° |
| 2026-05-04 18:03 | 52.55381 | 5.82000 | 6972 ft | 245 kts | 255° |
| 2026-05-04 18:04 | 52.54920 | 5.79305 | 6978 ft | 245 kts | 254° |
| 2026-05-04 18:04 | 52.54459 | 5.76614 | 6962 ft | 246 kts | 254° |
| 2026-05-04 18:04 | 52.53005 | 5.71117 | 6653 ft | 274 kts | 243° |
| 2026-05-04 18:05 | 52.52136 | 5.68352 | 6482 ft | 271 kts | 243° |
| 2026-05-04 18:05 | 52.51271 | 5.65609 | 6309 ft | 272 kts | 243° |
| 2026-05-04 18:05 | 52.50404 | 5.62851 | 6130 ft | 271 kts | 243° |
| 2026-05-04 18:05 | 52.49542 | 5.60102 | 5987 ft | 270 kts | 243° |
| 2026-05-04 18:06 | 52.47829 | 5.54632 | 5781 ft | 270 kts | 243° |
| 2026-05-04 18:06 | 52.46959 | 5.51859 | 5682 ft | 270 kts | 243° |
| 2026-05-04 18:06 | 52.46100 | 5.49122 | 5576 ft | 270 kts | 243° |
| 2026-05-04 18:07 | 52.45241 | 5.46387 | 5469 ft | 269 kts | 243° |
| 2026-05-04 18:07 | 52.44383 | 5.43659 | 5372 ft | 269 kts | 243° |
| 2026-05-04 18:07 | 52.43524 | 5.40930 | 5272 ft | 269 kts | 243° |
| 2026-05-04 18:07 | 52.42666 | 5.38210 | 5174 ft | 269 kts | 243° |
| 2026-05-04 18:08 | 52.41807 | 5.35488 | 5069 ft | 269 kts | 243° |
| 2026-05-04 18:08 | 52.40988 | 5.32895 | 4991 ft | 268 kts | 243° |
| 2026-05-04 18:08 | 52.40132 | 5.30185 | 4964 ft | 268 kts | 243° |
| 2026-05-04 18:08 | 52.39274 | 5.27474 | 4919 ft | 268 kts | 243° |
| 2026-05-04 18:09 | 52.37557 | 5.22059 | 4757 ft | 268 kts | 243° |
| 2026-05-04 18:09 | 52.36140 | 5.17598 | 4645 ft | 268 kts | 243° |
| 2026-05-04 18:10 | 52.35091 | 5.14301 | 4561 ft | 268 kts | 243° |
| 2026-05-04 18:10 | 52.34220 | 5.11571 | 4449 ft | 268 kts | 243° |
| 2026-05-04 18:10 | 52.33361 | 5.08875 | 4330 ft | 267 kts | 243° |
| 2026-05-04 18:10 | 52.32772 | 5.07008 | 4239 ft | 267 kts | 243° |
| 2026-05-04 18:11 | 52.32012 | 5.04594 | 4121 ft | 259 kts | 243° |
| 2026-05-04 18:11 | 52.31305 | 5.02360 | 4002 ft | 249 kts | 244° |
| 2026-05-04 18:11 | 52.30808 | 4.99730 | 3870 ft | 243 kts | 270° |
| 2026-05-04 18:11 | 52.31003 | 4.96987 | 3809 ft | 243 kts | 275° |
| 2026-05-04 18:12 | 52.30883 | 4.94241 | 3751 ft | 245 kts | 254° |
| 2026-05-04 18:12 | 52.30170 | 4.91967 | 3641 ft | 245 kts | 238° |
| 2026-05-04 18:12 | 52.29232 | 4.89647 | 3520 ft | 245 kts | 237° |
| 2026-05-04 18:12 | 52.28290 | 4.87343 | 3388 ft | 241 kts | 237° |
| 2026-05-04 18:13 | 52.27377 | 4.85116 | 3201 ft | 233 kts | 237° |
| 2026-05-04 18:13 | 52.26474 | 4.82909 | 2828 ft | 233 kts | 237° |
| 2026-05-04 18:13 | 52.24665 | 4.78515 | 2157 ft | 227 kts | 237° |
| 2026-05-04 18:14 | 52.23805 | 4.76455 | 2047 ft | 220 kts | 237° |
| 2026-05-04 18:14 | 52.22934 | 4.74379 | 2002 ft | 224 kts | 237° |
| 2026-05-04 18:14 | 52.22052 | 4.72264 | 2005 ft | 226 kts | 237° |
| 2026-05-04 18:15 | 52.20290 | 4.68171 | 2000 ft | 213 kts | 236° |
| 2026-05-04 18:15 | 52.18567 | 4.64240 | 2004 ft | 214 kts | 236° |
| 2026-05-04 18:15 | 52.17746 | 4.62228 | 2004 ft | 214 kts | 242° |
| 2026-05-04 18:16 | 52.17051 | 4.60081 | 1991 ft | 212 kts | 256° |
| 2026-05-04 18:16 | 52.17053 | 4.57747 | 2000 ft | 208 kts | 293° |
| 2026-05-04 18:16 | 52.17867 | 4.55970 | 1992 ft | 187 kts | 331° |
| 2026-05-04 18:17 | 52.20199 | 4.55795 | 2001 ft | 173 kts | 9° |
| 2026-05-04 18:17 | 52.21388 | 4.56205 | 2000 ft | 177 kts | 25° |
| 2026-05-04 18:17 | 52.23142 | 4.58892 | 2004 ft | 177 kts | 53° |
| 2026-05-04 18:18 | 52.23816 | 4.60529 | 2121 ft | 165 kts | 55° |
| 2026-05-04 18:18 | 52.24454 | 4.62193 | 2704 ft | 181 kts | 61° |
| 2026-05-04 18:18 | 52.24807 | 4.64194 | 3499 ft | 183 kts | 84° |
| 2026-05-04 18:18 | 52.24602 | 4.66216 | 3759 ft | 181 kts | 115° |
| 2026-05-04 18:19 | 52.22961 | 4.68671 | 3474 ft | 200 kts | 161° |
| 2026-05-04 18:19 | 52.21605 | 4.68866 | 3140 ft | 196 kts | 191° |
| 2026-05-04 18:19 | 52.20385 | 4.67972 | 2811 ft | 192 kts | 220° |
| 2026-05-04 18:20 | 52.19452 | 4.66429 | 2428 ft | 192 kts | 239° |
| 2026-05-04 18:20 | 52.18769 | 4.64549 | 2085 ft | 192 kts | 242° |
| 2026-05-04 18:20 | 52.18125 | 4.62723 | 1992 ft | 183 kts | 242° |
| 2026-05-04 18:20 | 52.17469 | 4.60876 | 2008 ft | 196 kts | 242° |
| 2026-05-04 18:21 | 52.16787 | 4.58945 | 2002 ft | 196 kts | 242° |
| 2026-05-04 18:21 | 52.16286 | 4.56929 | 2000 ft | 190 kts | 270° |
| 2026-05-04 18:21 | 52.16597 | 4.54908 | 2004 ft | 185 kts | 309° |
| 2026-05-04 18:21 | 52.17560 | 4.53660 | 2000 ft | 176 kts | 344° |
| 2026-05-04 18:22 | 52.18747 | 4.53303 | 1999 ft | 174 kts | 354° |
| 2026-05-04 18:22 | 52.19954 | 4.53270 | 2002 ft | 176 kts | 15° |
| 2026-05-04 18:22 | 52.21038 | 4.54185 | 1996 ft | 178 kts | 40° |
| 2026-05-04 18:22 | 52.21873 | 4.55667 | 1994 ft | 178 kts | 51° |
| 2026-05-04 18:23 | 52.22572 | 4.57314 | 2002 ft | 177 kts | 55° |
| 2026-05-04 18:23 | 52.23240 | 4.59012 | 2001 ft | 178 kts | 56° |
| 2026-05-04 18:23 | 52.23895 | 4.60702 | 1930 ft | 174 kts | 56° |
| 2026-05-04 18:23 | 52.24534 | 4.62357 | 1679 ft | 167 kts | 56° |
| 2026-05-04 18:24 | 52.25129 | 4.63902 | 1441 ft | 154 kts | 56° |
| 2026-05-04 18:24 | 52.25669 | 4.65310 | 1246 ft | 139 kts | 55° |
| 2026-05-04 18:24 | 52.26157 | 4.66578 | 1054 ft | 125 kts | 55° |
| 2026-05-04 18:24 | 52.26611 | 4.67799 | 829 ft | 130 kts | 56° |
| 2026-05-04 18:25 | 52.27093 | 4.69057 | 690 ft | 129 kts | 53° |
| 2026-05-04 18:25 | 52.27580 | 4.70293 | 525 ft | 128 kts | 53° |
| 2026-05-04 18:25 | 52.28067 | 4.71508 | 356 ft | 128 kts | 55° |
| 2026-05-04 18:25 | 52.28544 | 4.72761 | 190 ft | 130 kts | 56° |
| 2026-05-04 18:26 | 52.29027 | 4.74028 | 11 ft | 127 kts | 56° |
| 2026-05-04 18:26 | 52.29436 | 4.75078 | -3 ft | 83 kts | 57° |
| 2026-05-04 18:26 | 52.29646 | 4.75630 | -1 ft | 31 kts | 56° |
| 2026-05-04 18:26 | 52.29751 | 4.75772 | -2 ft | 18 kts | 24° |
| 2026-05-04 18:27 | 52.29861 | 4.75869 | -1 ft | 16 kts | 29° |
| 2026-05-04 18:27 | 52.29962 | 4.75960 | -1 ft | 16 kts | 29° |
| 2026-05-04 18:27 | 52.30031 | 4.76089 | -1 ft | 16 kts | 57° |
| 2026-05-04 18:27 | 52.30092 | 4.76243 | -1 ft | 17 kts | 57° |
| 2026-05-04 18:28 | 52.30159 | 4.76409 | -1 ft | 19 kts | 57° |
| 2026-05-04 18:28 | 52.30212 | 4.76557 | -1 ft | 20 kts | 60° |
| 2026-05-04 18:28 | 52.30289 | 4.76758 | -1 ft | 21 kts | 56° |
| 2026-05-04 18:28 | 52.30371 | 4.76969 | -1 ft | 22 kts | 57° |
| 2026-05-04 18:29 | 52.30449 | 4.77175 | -1 ft | 21 kts | 57° |
| 2026-05-04 18:29 | 52.30523 | 4.77368 | -1 ft | 19 kts | 60° |
| 2026-05-04 18:29 | 52.30588 | 4.77538 | -1 ft | 16 kts | 52° |
| 2026-05-04 18:29 | 52.30691 | 4.77596 | -1 ft | 17 kts | 2° |
| 2026-05-04 18:30 | 52.30831 | 4.77479 | -1 ft | 12 kts | 282° |
| 2026-05-04 18:30 | 52.30838 | 4.77367 | -1 ft | 12 kts | 273° |
| 2026-05-04 18:30 | 52.30840 | 4.77314 | -1 ft | 4 kts | 273° |
| 2026-05-04 18:31 | 52.30848 | 4.77254 | -1 ft | 6 kts | 299° |
| 2026-05-04 18:31 | 52.30879 | 4.77237 | -1 ft | 3 kts | 353° |
| 2026-05-04 18:31 | 52.30894 | 4.77238 | -1 ft | 2 kts | 1° |
| 2026-05-04 18:31 | 52.30903 | 4.77239 | -1 ft | 1 kts | 2° |
| 2026-05-04 18:32 | 52.30904 | 4.77239 | -1 ft | 0 kts | 2° |